createdAt,value
2023-08-11T00:00:41.413Z,15.85
2023-08-11T00:03:44.834Z,15.72
2023-08-11T00:06:49.377Z,15.64
2023-08-11T00:09:52.203Z,15.55
2023-08-11T00:12:54.872Z,15.52
2023-08-11T00:15:57.859Z,15.48
2023-08-11T00:19:00.506Z,15.48
2023-08-11T00:22:03.666Z,15.38
2023-08-11T00:25:06.856Z,15.39
2023-08-11T00:28:09.749Z,15.30
2023-08-11T00:31:12.708Z,15.37
2023-08-11T00:34:15.624Z,15.42
2023-08-11T00:37:18.318Z,15.41
2023-08-11T00:40:21.225Z,15.32
2023-08-11T00:43:23.897Z,15.32
2023-08-11T00:46:26.809Z,15.22
2023-08-11T00:49:29.514Z,15.16
2023-08-11T00:52:32.641Z,15.24
2023-08-11T00:55:35.418Z,15.21
2023-08-11T00:58:38.977Z,15.14
2023-08-11T01:01:41.597Z,15.11
2023-08-11T01:04:44.502Z,15.08
2023-08-11T01:08:16.668Z,15.13
2023-08-11T01:11:50.375Z,15.11
2023-08-11T01:15:01.906Z,15.05
2023-08-11T01:18:07.350Z,14.94
2023-08-11T01:21:14.789Z,14.93
2023-08-11T01:24:18.559Z,14.75
2023-08-11T01:27:21.265Z,14.66
2023-08-11T01:30:25.616Z,14.55
2023-08-11T01:33:28.269Z,14.38
2023-08-11T01:36:31.386Z,14.26
2023-08-11T01:39:34.364Z,14.18
2023-08-11T01:42:53.680Z,14.08
2023-08-11T01:45:58.115Z,13.94
2023-08-11T01:49:01.623Z,13.90
2023-08-11T01:52:05.310Z,13.92
2023-08-11T01:55:10.805Z,13.86
2023-08-11T01:58:13.683Z,13.86
2023-08-11T02:01:16.561Z,13.80
2023-08-11T02:04:19.509Z,13.86
2023-08-11T02:07:22.124Z,13.78
2023-08-11T02:10:25.268Z,13.76
2023-08-11T02:13:27.798Z,13.79
2023-08-11T02:16:37.544Z,13.84
2023-08-11T02:19:40.263Z,13.76
2023-08-11T02:22:43.120Z,13.67
2023-08-11T02:25:47.285Z,13.62
2023-08-11T02:28:50.464Z,13.55
2023-08-11T02:31:53.504Z,13.43
2023-08-11T02:34:57.279Z,13.34
2023-08-11T02:37:59.805Z,13.33
2023-08-11T02:41:03.260Z,13.44
2023-08-11T02:44:06.193Z,13.47
2023-08-11T02:47:09.353Z,13.40
2023-08-11T02:50:12.378Z,13.33
2023-08-11T02:53:15.508Z,13.20
2023-08-11T02:56:18.067Z,13.15
2023-08-11T02:59:20.962Z,13.02
2023-08-11T03:02:23.630Z,13.04
2023-08-11T03:05:26.461Z,13.05
2023-08-11T03:08:29.220Z,13.04
2023-08-11T03:11:32.196Z,12.98
2023-08-11T03:14:40.471Z,13.02
2023-08-11T03:17:43.555Z,12.95
2023-08-11T03:20:47.114Z,12.91
2023-08-11T03:23:50.550Z,13.02
2023-08-11T03:26:54.600Z,13.01
2023-08-11T03:29:58.004Z,12.95
2023-08-11T03:33:00.788Z,12.88
2023-08-11T03:36:05.025Z,12.86
2023-08-11T03:39:07.899Z,12.77
2023-08-11T03:42:13.648Z,12.78
2023-08-11T03:45:17.012Z,12.77
2023-08-11T03:48:20.692Z,12.69
2023-08-11T03:51:23.472Z,12.70
2023-08-11T03:54:39.255Z,12.68
2023-08-11T03:57:49.700Z,12.65
2023-08-11T04:00:53.287Z,12.67
2023-08-11T04:03:56.339Z,12.68
2023-08-11T04:06:58.934Z,12.79
2023-08-11T04:10:06.563Z,12.87
2023-08-11T04:13:09.345Z,12.95
2023-08-11T04:16:12.216Z,13.03
2023-08-11T04:19:15.188Z,13.09
2023-08-11T04:22:29.057Z,13.17
2023-08-11T04:25:40.376Z,13.24
2023-08-11T04:28:44.790Z,13.27
2023-08-11T04:31:49.212Z,13.31
2023-08-11T04:34:52.611Z,13.40
2023-08-11T04:37:55.634Z,13.52
2023-08-11T04:40:59.701Z,13.56
2023-08-11T04:44:02.693Z,13.62
2023-08-11T04:47:05.834Z,13.67
2023-08-11T04:50:09.405Z,13.73
2023-08-11T04:53:13.090Z,13.82
2023-08-11T04:56:15.679Z,13.86
2023-08-11T04:59:21.767Z,13.95
2023-08-11T05:02:24.341Z,14.05
2023-08-11T05:05:27.661Z,14.18
2023-08-11T05:08:30.233Z,14.24
2023-08-11T05:11:33.151Z,14.31
2023-08-11T05:14:35.702Z,14.49
2023-08-11T05:17:38.674Z,14.60
2023-08-11T05:20:41.307Z,14.71
2023-08-11T05:23:44.461Z,14.74
2023-08-11T05:26:47.044Z,14.87
2023-08-11T05:29:50.852Z,14.93
2023-08-11T05:32:53.516Z,15.09
2023-08-11T05:35:56.542Z,15.33
2023-08-11T05:38:59.170Z,15.30
2023-08-11T05:42:01.993Z,15.47
2023-08-11T05:45:05.241Z,15.45
2023-08-11T05:48:08.287Z,15.56
2023-08-11T05:51:10.848Z,15.78
2023-08-11T05:54:13.748Z,15.83
2023-08-11T05:57:16.352Z,15.83
2023-08-11T06:00:20.390Z,15.87
2023-08-11T06:03:23.583Z,15.92
2023-08-11T06:06:27.714Z,16.05
2023-08-11T06:09:30.781Z,16.20
2023-08-11T06:12:33.677Z,16.34
2023-08-11T06:15:36.601Z,16.42
2023-08-11T06:18:39.377Z,16.57
2023-08-11T06:21:42.169Z,16.67
2023-08-11T06:24:44.753Z,16.58
2023-08-11T06:27:47.749Z,16.84
2023-08-11T06:30:50.517Z,16.88
2023-08-11T06:33:53.304Z,17.05
2023-08-11T06:36:55.912Z,17.08
2023-08-11T06:39:59.660Z,17.12
2023-08-11T06:43:02.273Z,17.24
2023-08-11T06:46:05.416Z,17.33
2023-08-11T06:49:08.176Z,17.53
2023-08-11T06:52:11.151Z,17.91
2023-08-11T06:55:13.814Z,17.92
2023-08-11T06:58:16.705Z,18.28
2023-08-11T07:01:19.638Z,18.57
2023-08-11T07:04:22.659Z,18.65
2023-08-11T07:07:25.197Z,19.02
2023-08-11T07:10:28.813Z,19.19
2023-08-11T07:13:31.460Z,19.23
2023-08-11T07:16:34.410Z,20.51
2023-08-11T07:19:37.668Z,20.99
2023-08-11T07:22:40.582Z,22.41
2023-08-11T07:25:44.042Z,22.37
2023-08-11T07:28:47.676Z,23.53
2023-08-11T07:31:50.294Z,22.56
2023-08-11T07:34:53.108Z,22.32
2023-08-11T07:37:55.862Z,23.69
2023-08-11T07:40:58.777Z,23.49
2023-08-11T07:44:01.458Z,25.28
2023-08-11T07:47:04.463Z,23.65
2023-08-11T07:50:08.215Z,24.41
2023-08-11T07:53:11.231Z,25.67
2023-08-11T07:56:13.948Z,25.32
2023-08-11T07:59:17.290Z,24.98
2023-08-11T08:02:20.230Z,25.91
2023-08-11T08:05:23.584Z,26.38
2023-08-11T08:08:26.154Z,27.15
2023-08-11T08:11:29.357Z,25.61
2023-08-11T08:14:32.316Z,26.67
2023-08-11T08:17:35.652Z,26.95
2023-08-11T08:20:38.277Z,26.39
2023-08-11T08:23:42.359Z,26.25
2023-08-11T08:26:45.704Z,27.20
2023-08-11T08:29:48.586Z,26.67
2023-08-11T08:32:51.143Z,26.24
2023-08-11T08:35:53.970Z,26.08
2023-08-11T08:38:56.626Z,26.52
2023-08-11T08:42:00.433Z,25.92
2023-08-11T08:45:04.658Z,26.14
2023-08-11T08:48:14.473Z,25.56
2023-08-11T08:51:17.157Z,26.95
2023-08-11T08:54:20.591Z,26.88
2023-08-11T08:57:26.834Z,27.16
2023-08-11T09:00:34.246Z,28.58
2023-08-11T09:03:38.736Z,28.75
2023-08-11T09:06:42.968Z,29.27
2023-08-11T09:09:45.647Z,29.11
2023-08-11T09:12:49.709Z,29.61
2023-08-11T09:15:52.494Z,28.13
2023-08-11T09:18:55.447Z,29.04
2023-08-11T09:21:58.207Z,30.27
2023-08-11T09:25:01.093Z,30.29
2023-08-11T09:28:04.112Z,29.94
2023-08-11T09:31:07.879Z,29.19
2023-08-11T09:34:16.169Z,29.98
2023-08-11T09:37:19.221Z,31.42
2023-08-11T09:40:24.743Z,30.71
2023-08-11T09:43:28.722Z,29.85
2023-08-11T09:49:35.317Z,29.40
2023-08-11T09:52:40.255Z,30.75
2023-08-11T09:55:44.239Z,31.38
2023-08-11T09:58:49.184Z,30.01
2023-08-11T10:01:54.923Z,28.80
2023-08-11T10:05:03.902Z,30.47
2023-08-11T10:08:07.515Z,30.22
2023-08-11T10:11:12.471Z,31.15
2023-08-11T10:14:19.546Z,32.28
2023-08-11T10:17:23.706Z,31.98
2023-08-11T10:20:27.125Z,31.02
2023-08-11T10:23:31.079Z,32.81
2023-08-11T10:26:34.804Z,33.54
2023-08-11T10:29:39.604Z,32.73
2023-08-11T10:32:42.354Z,34.47
2023-08-11T10:35:47.935Z,32.13
2023-08-11T10:39:02.296Z,30.75
2023-08-11T10:42:05.370Z,32.48
2023-08-11T10:45:10.772Z,35.56
2023-08-11T10:48:13.629Z,38.35
2023-08-11T10:51:38.049Z,35.61
2023-08-11T10:54:50.960Z,33.28
2023-08-11T10:58:15.148Z,33.79
2023-08-11T11:01:19.769Z,32.54
2023-08-11T11:04:24.638Z,33.09
2023-08-11T11:07:29.059Z,31.99
2023-08-11T11:10:43.739Z,31.52
2023-08-11T11:13:51.864Z,32.44
2023-08-11T11:16:56.319Z,33.40
2023-08-11T11:20:02.964Z,33.81
2023-08-11T11:23:06.913Z,33.63
2023-08-11T11:26:10.005Z,36.00
2023-08-11T11:29:13.150Z,33.89
2023-08-11T11:32:18.238Z,36.21
2023-08-11T11:35:21.027Z,35.84
2023-08-11T11:38:24.022Z,35.05
2023-08-11T11:41:26.545Z,35.02
2023-08-11T11:44:32.115Z,38.43
2023-08-11T11:47:35.119Z,37.76
2023-08-11T11:50:38.133Z,37.71
2023-08-11T11:53:43.049Z,35.14
2023-08-11T11:56:58.208Z,35.21
2023-08-11T12:00:17.330Z,36.61
2023-08-11T12:03:22.149Z,34.74
2023-08-11T12:06:28.332Z,34.80
2023-08-11T12:09:31.124Z,35.59
2023-08-11T12:12:34.249Z,34.02
2023-08-11T12:15:37.457Z,34.80
2023-08-11T12:18:41.099Z,34.35
2023-08-11T12:21:43.863Z,35.27
2023-08-11T12:24:46.751Z,35.54
2023-08-11T12:27:49.534Z,37.90
2023-08-11T12:30:52.494Z,39.32
2023-08-11T12:33:55.454Z,39.24
2023-08-11T12:36:59.900Z,35.99
2023-08-11T12:40:02.857Z,36.81
2023-08-11T12:43:06.063Z,37.77
2023-08-11T12:46:10.058Z,36.83
2023-08-11T12:49:14.404Z,38.93
2023-08-11T12:52:17.305Z,38.19
2023-08-11T12:55:20.354Z,39.82
2023-08-11T12:58:23.179Z,35.97
2023-08-11T13:01:27.758Z,39.02
2023-08-11T13:04:30.370Z,40.52
2023-08-11T13:07:33.545Z,36.92
2023-08-11T13:10:36.916Z,36.11
2023-08-11T13:13:39.818Z,38.87
2023-08-11T13:16:42.456Z,32.70
2023-08-11T13:19:45.409Z,35.28
2023-08-11T13:22:47.961Z,37.04
2023-08-11T13:25:51.291Z,36.79
2023-08-11T13:28:58.438Z,34.31
2023-08-11T13:32:01.705Z,38.46
2023-08-11T13:35:06.273Z,37.57
2023-08-11T13:38:09.406Z,35.43
2023-08-11T13:41:12.016Z,38.94
2023-08-11T13:44:15.205Z,37.10
2023-08-11T13:47:18.225Z,37.65
2023-08-11T13:50:22.375Z,37.57
2023-08-11T13:53:25.188Z,41.02
2023-08-11T13:56:28.062Z,39.54
2023-08-11T13:59:31.026Z,37.10
2023-08-11T14:02:33.943Z,36.42
2023-08-11T14:05:36.877Z,36.47
2023-08-11T14:08:40.365Z,37.99
2023-08-11T14:11:43.684Z,39.87
2023-08-11T14:14:46.204Z,38.24
2023-08-11T14:17:49.049Z,40.38
2023-08-11T14:20:52.507Z,38.43
2023-08-11T14:23:55.981Z,38.25
2023-08-11T14:26:58.518Z,34.18
2023-08-11T14:30:01.355Z,32.70
2023-08-11T14:33:04.224Z,33.57
2023-08-11T14:36:12.773Z,32.58
2023-08-11T14:39:15.835Z,30.85
2023-08-11T14:42:18.732Z,28.22
2023-08-11T14:45:21.306Z,28.62
2023-08-11T14:48:26.291Z,28.38
2023-08-11T14:51:30.728Z,27.41
2023-08-11T14:54:33.623Z,27.67
2023-08-11T14:57:36.153Z,27.55
2023-08-11T15:00:39.190Z,27.70
2023-08-11T15:03:42.779Z,27.73
2023-08-11T15:06:45.793Z,27.58
2023-08-11T15:09:48.406Z,27.33
2023-08-11T15:12:51.235Z,27.54
2023-08-11T15:15:53.958Z,27.79
2023-08-11T15:18:56.750Z,27.21
2023-08-11T15:21:59.649Z,26.92
2023-08-11T15:25:06.058Z,26.42
2023-08-11T15:28:08.618Z,26.95
2023-08-11T15:31:11.576Z,26.98
2023-08-11T15:34:14.151Z,26.47
2023-08-11T15:37:17.036Z,26.10
2023-08-11T15:40:19.631Z,25.78
2023-08-11T15:43:22.520Z,25.70
2023-08-11T15:46:25.202Z,25.37
2023-08-11T15:49:28.012Z,25.28
2023-08-11T15:52:30.605Z,25.15
2023-08-11T15:55:36.854Z,25.03
2023-08-11T15:58:41.234Z,25.00
2023-08-11T16:01:55.910Z,24.90
2023-08-11T16:05:02.874Z,24.79
2023-08-11T16:08:05.839Z,24.75
2023-08-11T16:11:08.775Z,24.78
2023-08-11T16:14:13.203Z,24.89
2023-08-11T16:17:16.047Z,25.79
2023-08-11T16:20:18.703Z,27.53
2023-08-11T16:23:21.567Z,28.77
2023-08-11T16:26:24.198Z,29.28
2023-08-11T16:29:27.150Z,31.32
2023-08-11T16:32:29.808Z,32.65
2023-08-11T16:35:32.728Z,31.68
2023-08-11T16:38:35.460Z,30.54
2023-08-11T16:41:38.434Z,28.31
2023-08-11T16:44:41.114Z,27.11
2023-08-11T16:47:44.441Z,26.99
2023-08-11T16:50:47.374Z,28.33
2023-08-11T16:53:50.295Z,26.72
2023-08-11T16:56:52.824Z,25.50
2023-08-11T16:59:55.718Z,24.90
2023-08-11T17:02:58.469Z,24.49
2023-08-11T17:06:01.338Z,24.30
2023-08-11T17:09:05.304Z,24.15
2023-08-11T17:12:08.965Z,24.08
2023-08-11T17:15:12.019Z,23.92
2023-08-11T17:18:15.024Z,23.74
2023-08-11T17:21:20.238Z,23.52
2023-08-11T17:24:23.160Z,23.44
2023-08-11T17:27:25.798Z,23.43
2023-08-11T17:30:30.901Z,23.35
2023-08-11T17:33:33.558Z,23.20
2023-08-11T17:36:36.514Z,23.02
2023-08-11T17:39:39.088Z,22.98
2023-08-11T17:42:42.345Z,22.76
2023-08-11T17:45:45.337Z,22.58
2023-08-11T17:48:48.200Z,22.40
2023-08-11T17:51:50.939Z,22.25
2023-08-11T17:54:54.222Z,22.17
2023-08-11T17:57:56.804Z,22.03
2023-08-11T18:00:59.652Z,21.93
2023-08-11T18:04:06.291Z,21.89
2023-08-11T18:07:10.607Z,21.88
2023-08-11T18:10:13.471Z,21.78
2023-08-11T18:13:16.340Z,21.58
2023-08-11T18:16:19.334Z,21.38
2023-08-11T18:19:21.978Z,21.29
2023-08-11T18:22:24.834Z,21.16
2023-08-11T18:25:27.572Z,21.14
2023-08-11T18:28:30.492Z,21.04
2023-08-11T18:31:33.095Z,20.92
2023-08-11T18:34:35.986Z,20.84
2023-08-11T18:37:38.721Z,20.79
2023-08-11T18:40:41.614Z,20.67
2023-08-11T18:43:44.334Z,20.60
2023-08-11T18:46:47.349Z,20.40
2023-08-11T18:49:50.004Z,20.31
2023-08-11T18:52:52.925Z,20.13
2023-08-11T18:55:55.563Z,20.03
2023-08-11T18:58:58.422Z,19.89
2023-08-11T19:02:01.077Z,19.81
2023-08-11T19:05:04.125Z,19.72
2023-08-11T19:08:07.573Z,19.65
2023-08-11T19:11:10.563Z,19.57
2023-08-11T19:14:13.690Z,19.46
2023-08-11T19:17:16.540Z,19.37
2023-08-11T19:20:19.201Z,19.33
2023-08-11T19:23:21.954Z,19.28
2023-08-11T19:26:24.422Z,19.28
2023-08-11T19:29:27.329Z,19.23
2023-08-11T19:32:30.430Z,19.21
2023-08-11T19:35:33.268Z,19.20
2023-08-11T19:38:42.291Z,19.14
2023-08-11T19:41:45.151Z,19.07
2023-08-11T19:44:48.024Z,19.04
2023-08-11T19:47:50.877Z,19.06
2023-08-11T19:50:53.556Z,18.96
2023-08-11T19:53:56.324Z,19.01
2023-08-11T19:56:58.932Z,18.92
2023-08-11T20:00:02.045Z,18.88
2023-08-11T20:03:16.695Z,18.77
2023-08-11T20:06:19.607Z,18.75
2023-08-11T20:09:23.477Z,18.64
2023-08-11T20:12:26.458Z,18.71
2023-08-11T20:15:29.184Z,18.77
2023-08-11T20:18:32.134Z,18.77
2023-08-11T20:21:35.085Z,18.78
2023-08-11T20:24:37.992Z,18.78
2023-08-11T20:27:40.549Z,18.65
2023-08-11T20:30:44.543Z,18.56
2023-08-11T20:33:47.022Z,18.42
2023-08-11T20:36:51.068Z,18.30
2023-08-11T20:39:53.560Z,18.18
2023-08-11T20:42:56.416Z,18.15
2023-08-11T20:45:58.972Z,18.02
2023-08-11T20:49:01.880Z,17.93
2023-08-11T20:52:04.531Z,17.87
2023-08-11T20:55:07.660Z,17.75
2023-08-11T20:58:10.445Z,17.68
2023-08-11T21:01:13.374Z,17.56
2023-08-11T21:04:16.087Z,17.51
2023-08-11T21:07:19.038Z,17.46
2023-08-11T21:10:21.599Z,17.43
2023-08-11T21:13:24.952Z,17.35
2023-08-11T21:16:27.762Z,17.34
2023-08-11T21:19:30.644Z,17.28
2023-08-11T21:22:33.364Z,17.25
2023-08-11T21:25:36.418Z,17.20
2023-08-11T21:28:38.982Z,17.17
2023-08-11T21:31:41.926Z,17.10
2023-08-11T21:34:44.559Z,17.04
2023-08-11T21:37:47.365Z,16.99
2023-08-11T21:40:49.936Z,16.94
2023-08-11T21:43:52.807Z,16.90
2023-08-11T21:46:55.475Z,16.87
2023-08-11T21:49:58.324Z,16.82
2023-08-11T21:53:13.396Z,16.81
2023-08-11T21:56:24.279Z,16.76
2023-08-11T21:59:28.600Z,16.95
2023-08-11T22:02:31.500Z,17.00
2023-08-11T22:05:34.477Z,17.24
2023-08-11T22:08:37.124Z,17.27
2023-08-11T22:11:40.047Z,17.14
2023-08-11T22:14:42.588Z,17.00
2023-08-11T22:17:45.420Z,16.82
2023-08-11T22:20:48.203Z,16.68
2023-08-11T22:23:51.043Z,16.61
2023-08-11T22:26:53.662Z,16.53
2023-08-11T22:29:59.854Z,16.45
2023-08-11T22:33:03.052Z,16.37
2023-08-11T22:36:06.228Z,16.28
2023-08-11T22:39:08.807Z,16.25
2023-08-11T22:42:11.599Z,16.22
2023-08-11T22:45:15.250Z,16.24
2023-08-11T22:48:18.212Z,16.21
2023-08-11T22:51:21.143Z,16.14
2023-08-11T22:54:23.945Z,16.14
2023-08-11T22:57:27.081Z,16.04
2023-08-11T23:00:29.982Z,15.99
2023-08-11T23:03:32.619Z,15.94
2023-08-11T23:06:35.374Z,15.87
2023-08-11T23:09:37.864Z,15.81
2023-08-11T23:12:40.786Z,15.80
2023-08-11T23:15:43.305Z,15.75
2023-08-11T23:18:46.360Z,15.73
2023-08-11T23:21:48.984Z,15.69
2023-08-11T23:24:52.175Z,15.64
2023-08-11T23:27:54.726Z,15.59
2023-08-11T23:30:57.856Z,15.53
2023-08-11T23:34:00.388Z,15.50
2023-08-11T23:37:03.236Z,15.48
2023-08-11T23:40:06.314Z,15.44
2023-08-11T23:43:09.183Z,15.42
2023-08-11T23:46:15.273Z,15.40
2023-08-11T23:49:18.449Z,15.33
2023-08-11T23:52:20.908Z,15.35
2023-08-11T23:55:25.915Z,15.28
2023-08-11T23:58:28.560Z,15.26
